Terminal Aerodrome Forecast
Issued by NWS

Home | Current Version | Previous Version | Text Only | Print | Product List | Glossary On
Versions: 1 2 3 4 5 6 7 8 9 10 11 12 13 14 15
103
FTUS44 KCRP 162332
TAFLRD
TAF
KLRD 162332Z 1700/1724 15016G23KT P6SM FEW060
     FM170800 16011KT P6SM SCT022
      TEMPO 1708/1712 BKN022
     FM171200 15010KT P6SM SCT022 SCT035
      TEMPO 1712/1715 BKN022
     FM171500 15015G22KT P6SM FEW050=

USA.gov is the U.S. government's official web portal to all federal, state and local government web resources and services.